Terminal Aerodrome Forecast
Issued by NWS

Home | Current Version | Previous Version | Text Only | Print | Product List | Glossary On
Versions: 1 2 3 4 5 6 7 8 9 10 11 12
437
FTUS45 KRIW 252323
TAFLND
TAF
KLND 252323Z 2600/2624 VRB06KT P6SM SCT080
     FM260200 26010KT P6SM SCT140 BKN200 WS013/27050KT
     FM261900 24012KT P6SM VCSH SCT100 BKN150=

USA.gov is the U.S. government's official web portal to all federal, state and local government web resources and services.